Great Barton, United Kingdom
Current Conditions -  °F | °C
As of 8:36 PM on Thursday 23 Oct 2014 (Local Time) from EGUL Reporting Station
Broken Clouds Broken Clouds  
Wind Chill: 59°   Ceiling: 4000
Heat Index: 59°   Visibility: 6mi
Dew Point: 59°   Wind: 13mph
Humidity: 100%   Direction: 210°SSW
Pressure: 29.99"   Gusts: NA
Location:  52.27°N, 0.77°E
Report Text: EGUL 231936Z AUTO 21011KT 9999 SCT021 BKN040 15/15 A2999 RMK AO2
Loading
Personal Weather Stations






























Interactive Weather Map
Tropical Storm Tracking
New forecast layout! Learn more

10-Day Weather Forecast

Advertisements
Track Severe Weather on mobile